Aviation Digital Data Service (ADDS)

Output produced by METARs form (0212 UTC 20 September 2020)
found at http://www.aviationweather.gov/metar/data/
 
METAR text: RJCC 200200Z 20012KT 9999 FEW020 BKN/// 22/15 Q1011 RMK 1CU020 A2987
Conditions at: RJCC (CHITOSE (JASDF/C, JP) observed 0200 UTC 20 September 2020
Temperature: 22.0°C (72°F)
Dewpoint: 15.0°C (59°F) [RH = 65%]
Pressure (altimeter): 29.85 inches Hg (1011.0 mb)
Winds: from the SSW (200 degrees) at 14 MPH (12 knots; 6.2 m/s)
Visibility: 6 or more miles (10+ km)
Ceiling: at least 12,000 feet AGL
Clouds: few clouds at 2000 feet AGL
Weather: no significant weather observed at this time

METAR text: RJCC 200130Z 20014KT 9999 FEW020 SCT030 BKN/// 23/16 Q1011 RMK 1CU020 3CU030 A2987
Conditions at: RJCC (CHITOSE (JASDF/C, JP) observed 0130 UTC 20 September 2020
Temperature: 23.0°C (73°F)
Dewpoint: 16.0°C (61°F) [RH = 65%]
Pressure (altimeter): 29.85 inches Hg (1011.0 mb)
Winds: from the SSW (200 degrees) at 16 MPH (14 knots; 7.2 m/s)
Visibility: 6 or more miles (10+ km)
Ceiling: at least 12,000 feet AGL
Clouds: few clouds at 2000 feet AGL
scattered clouds at 3000 feet AGL
Weather: no significant weather observed at this time

METAR text: RJCC 200100Z 18013KT 9999 FEW020 SCT030 BKN/// 21/16 Q1011 RMK 1CU020 3CU030 A2988
Conditions at: RJCC (CHITOSE (JASDF/C, JP) observed 0100 UTC 20 September 2020
Temperature: 21.0°C (70°F)
Dewpoint: 16.0°C (61°F) [RH = 73%]
Pressure (altimeter): 29.85 inches Hg (1011.0 mb)
Winds: from the S (180 degrees) at 15 MPH (13 knots; 6.7 m/s)
Visibility: 6 or more miles (10+ km)
Ceiling: at least 12,000 feet AGL
Clouds: few clouds at 2000 feet AGL
scattered clouds at 3000 feet AGL
Weather: no significant weather observed at this time

METAR text: RJCC 200030Z 18009KT 9999 FEW020 BKN/// 21/17 Q1012 RMK 1CU020 A2989
Conditions at: RJCC (CHITOSE (JASDF/C, JP) observed 0030 UTC 20 September 2020
Temperature: 21.0°C (70°F)
Dewpoint: 17.0°C (63°F) [RH = 78%]
Pressure (altimeter): 29.88 inches Hg (1012.0 mb)
Winds: from the S (180 degrees) at 10 MPH (9 knots; 4.6 m/s)
Visibility: 6 or more miles (10+ km)
Ceiling: at least 12,000 feet AGL
Clouds: few clouds at 2000 feet AGL
Weather: no significant weather observed at this time

METAR text: RJCC 200000Z 15004KT 120V180 9999 FEW020 SCT/// 20/18 Q1011 RMK 1CU020 A2988
Conditions at: RJCC (CHITOSE (JASDF/C, JP) observed 0000 UTC 20 September 2020
Temperature: 20.0°C (68°F)
Dewpoint: 18.0°C (64°F) [RH = 88%]
Pressure (altimeter): 29.85 inches Hg (1011.0 mb)
Winds: from the SSE (150 degrees) at 5 MPH (4 knots; 2.1 m/s)
Visibility: 6 or more miles (10+ km)
Ceiling: at least 12,000 feet AGL
Clouds: few clouds at 2000 feet AGL
Weather: no significant weather observed at this time

METAR text: RJCC 192330Z 13005KT 9999 FEW020 SCT/// 18/17 Q1011
Conditions at: RJCC (CHITOSE (JASDF/C, JP) observed 2330 UTC 19 September 2020
Temperature: 18.0°C (64°F)
Dewpoint: 17.0°C (63°F) [RH = 94%]
Pressure (altimeter): 29.85 inches Hg (1011.0 mb)
Winds: from the SE (130 degrees) at 6 MPH (5 knots; 2.6 m/s)
Visibility: 6 or more miles (10+ km)
Ceiling: at least 12,000 feet AGL
Clouds: few clouds at 2000 feet AGL
Weather: no significant weather observed at this time

METAR text: RJCC 192300Z 13003KT 100V170 9999 FEW020 18/16 Q1011 RMK 1CU020 A2988
Conditions at: RJCC (CHITOSE (JASDF/C, JP) observed 2300 UTC 19 September 2020
Temperature: 18.0°C (64°F)
Dewpoint: 16.0°C (61°F) [RH = 88%]
Pressure (altimeter): 29.85 inches Hg (1011.0 mb)
Winds: from the SE (130 degrees) at 3 MPH (3 knots; 1.5 m/s)
Visibility: 6 or more miles (10+ km)
Ceiling: at least 12,000 feet AGL
Clouds: few clouds at 2000 feet AGL
Weather: no significant weather observed at this time

METAR text: RJCC 192230Z 15005KT 9999 FEW020 17/16 Q1011 RMK 1CU020 A2987
Conditions at: RJCC (CHITOSE (JASDF/C, JP) observed 2230 UTC 19 September 2020
Temperature: 17.0°C (63°F)
Dewpoint: 16.0°C (61°F) [RH = 94%]
Pressure (altimeter): 29.85 inches Hg (1011.0 mb)
Winds: from the SSE (150 degrees) at 6 MPH (5 knots; 2.6 m/s)
Visibility: 6 or more miles (10+ km)
Ceiling: at least 12,000 feet AGL
Clouds: few clouds at 2000 feet AGL
Weather: no significant weather observed at this time

METAR text: RJCC 192200Z 00000KT 9999 FEW010 14/14 Q1011 RMK 2ST010 A2987
Conditions at: RJCC (CHITOSE (JASDF/C, JP) observed 2200 UTC 19 September 2020
Temperature: 14.0°C (57°F)
Dewpoint: 14.0°C (57°F) [RH = 100%]
Pressure (altimeter): 29.85 inches Hg (1011.0 mb)
Winds: calm
Visibility: 6 or more miles (10+ km)
Ceiling: at least 12,000 feet AGL
Clouds: few clouds at 1000 feet AGL
Weather: no significant weather observed at this time

METAR text: RJCC 192130Z VRB01KT 9999 FEW015 13/13 Q1011 RMK 1ST015 A2987
Conditions at: RJCC (CHITOSE (JASDF/C, JP) observed 2130 UTC 19 September 2020
Temperature: 13.0°C (55°F)
Dewpoint: 13.0°C (55°F) [RH = 100%]
Pressure (altimeter): 29.85 inches Hg (1011.0 mb)
Winds: variable direction winds at 1 MPH (1 knots; 0.5 m/s)
Visibility: 6 or more miles (10+ km)
Ceiling: at least 12,000 feet AGL
Clouds: few clouds at 1500 feet AGL
Weather: no significant weather observed at this time

METAR text: RJCC 192100Z 16004KT 9999 MIFG FEW020 12/12 Q1011 RMK 1CU020 A2986
Conditions at: RJCC (CHITOSE (JASDF/C, JP) observed 2100 UTC 19 September 2020
Temperature: 12.0°C (54°F)
Dewpoint: 12.0°C (54°F) [RH = 100%]
Pressure (altimeter): 29.85 inches Hg (1011.0 mb)
Winds: from the SSE (160 degrees) at 5 MPH (4 knots; 2.1 m/s)
Visibility: 6 or more miles (10+ km)
Ceiling: at least 12,000 feet AGL
Clouds: few clouds at 2000 feet AGL
Weather: MIFG  (shallow fog)

METAR text: RJCC 192030Z VRB02KT 9999 PRFG FEW002 12/12 Q1011 RMK 1ST002 A2985 FG SW
Conditions at: RJCC (CHITOSE (JASDF/C, JP) observed 2030 UTC 19 September 2020
Temperature: 12.0°C (54°F)
Dewpoint: 12.0°C (54°F) [RH = 100%]
Pressure (altimeter): 29.85 inches Hg (1011.0 mb)
Winds: variable direction winds at 2 MPH (2 knots; 1.0 m/s)
Visibility: 6 or more miles (10+ km)
Ceiling: at least 12,000 feet AGL
Clouds: few clouds at 200 feet AGL
Weather: PRFG  (partial fog)

METAR text: RJCC 192000Z 14004KT 060V170 9999 PRFG FEW020 12/12 Q1010 RMK 1CU020 A2984 FG NE-E
Conditions at: RJCC (CHITOSE (JASDF/C, JP) observed 2000 UTC 19 September 2020
Temperature: 12.0°C (54°F)
Dewpoint: 12.0°C (54°F) [RH = 100%]
Pressure (altimeter): 29.82 inches Hg (1010.0 mb)
Winds: from the SE (140 degrees) at 5 MPH (4 knots; 2.1 m/s)
Visibility: 6 or more miles (10+ km)
Ceiling: at least 12,000 feet AGL
Clouds: few clouds at 2000 feet AGL
Weather: PRFG  (partial fog)

METAR text: RJCC 191930Z 09003KT 9999 FEW020 BKN120 12/12 Q1010 RMK 1CU020 6AC120 A2984
Conditions at: RJCC (CHITOSE (JASDF/C, JP) observed 1930 UTC 19 September 2020
Temperature: 12.0°C (54°F)
Dewpoint: 12.0°C (54°F) [RH = 100%]
Pressure (altimeter): 29.82 inches Hg (1010.0 mb)
Winds: from the E (90 degrees) at 3 MPH (3 knots; 1.5 m/s)
Visibility: 6 or more miles (10+ km)
Ceiling: 12000 feet AGL
Clouds: few clouds at 2000 feet AGL
broken clouds at 12000 feet AGL
Weather: no significant weather observed at this time

METAR text: RJCC 191900Z 08003KT 9999 FEW020 BKN120 12/12 Q1010
Conditions at: RJCC (CHITOSE (JASDF/C, JP) observed 1900 UTC 19 September 2020
Temperature: 12.0°C (54°F)
Dewpoint: 12.0°C (54°F) [RH = 100%]
Pressure (altimeter): 29.82 inches Hg (1010.0 mb)
Winds: from the E (80 degrees) at 3 MPH (3 knots; 1.5 m/s)
Visibility: 6 or more miles (10+ km)
Ceiling: 12000 feet AGL
Clouds: few clouds at 2000 feet AGL
broken clouds at 12000 feet AGL
Weather: no significant weather observed at this time

METAR text: RJCC 191830Z VRB02KT 9999 FEW020 SCT100 12/12 Q1010 RMK 1CU020 3AC100 A2985
Conditions at: RJCC (CHITOSE (JASDF/C, JP) observed 1830 UTC 19 September 2020
Temperature: 12.0°C (54°F)
Dewpoint: 12.0°C (54°F) [RH = 100%]
Pressure (altimeter): 29.82 inches Hg (1010.0 mb)
Winds: variable direction winds at 2 MPH (2 knots; 1.0 m/s)
Visibility: 6 or more miles (10+ km)
Ceiling: at least 12,000 feet AGL
Clouds: few clouds at 2000 feet AGL
scattered clouds at 10000 feet AGL
Weather: no significant weather observed at this time

METAR text: RJCC 191800Z 07002KT 9999 FEW020 SCT100 13/13 Q1010 RMK 1CU020 4AC100 A2984
Conditions at: RJCC (CHITOSE (JASDF/C, JP) observed 1800 UTC 19 September 2020
Temperature: 13.0°C (55°F)
Dewpoint: 13.0°C (55°F) [RH = 100%]
Pressure (altimeter): 29.82 inches Hg (1010.0 mb)
Winds: from the ENE (70 degrees) at 2 MPH (2 knots; 1.0 m/s)
Visibility: 6 or more miles (10+ km)
Ceiling: at least 12,000 feet AGL
Clouds: few clouds at 2000 feet AGL
scattered clouds at 10000 feet AGL
Weather: no significant weather observed at this time

METAR text: RJCC 191730Z 18003KT 9999 FEW020 BKN100 12/12 Q1010 RMK 1CU020 6AC100 A2984
Conditions at: RJCC (CHITOSE (JASDF/C, JP) observed 1730 UTC 19 September 2020
Temperature: 12.0°C (54°F)
Dewpoint: 12.0°C (54°F) [RH = 100%]
Pressure (altimeter): 29.82 inches Hg (1010.0 mb)
Winds: from the S (180 degrees) at 3 MPH (3 knots; 1.5 m/s)
Visibility: 6 or more miles (10+ km)
Ceiling: 10000 feet AGL
Clouds: few clouds at 2000 feet AGL
broken clouds at 10000 feet AGL
Weather: no significant weather observed at this time

METAR text: RJCC 191700Z 21004KT 150V240 9999 FEW020 SCT120 12/12 Q1010 RMK 1CU020 4AC120 A2984
Conditions at: RJCC (CHITOSE (JASDF/C, JP) observed 1700 UTC 19 September 2020
Temperature: 12.0°C (54°F)
Dewpoint: 12.0°C (54°F) [RH = 100%]
Pressure (altimeter): 29.82 inches Hg (1010.0 mb)
Winds: from the SSW (210 degrees) at 5 MPH (4 knots; 2.1 m/s)
Visibility: 6 or more miles (10+ km)
Ceiling: at least 12,000 feet AGL
Clouds: few clouds at 2000 feet AGL
scattered clouds at 12000 feet AGL
Weather: no significant weather observed at this time

METAR text: RJCC 191630Z VRB03KT 9999 FEW020 SCT130 11/11 Q1010 RMK 1CU020 3AC130 A2984
Conditions at: RJCC (CHITOSE (JASDF/C, JP) observed 1630 UTC 19 September 2020
Temperature: 11.0°C (52°F)
Dewpoint: 11.0°C (52°F) [RH = 100%]
Pressure (altimeter): 29.82 inches Hg (1010.0 mb)
Winds: variable direction winds at 3 MPH (3 knots; 1.5 m/s)
Visibility: 6 or more miles (10+ km)
Ceiling: at least 12,000 feet AGL
Clouds: few clouds at 2000 feet AGL
scattered clouds at 13000 feet AGL
Weather: no significant weather observed at this time

METAR text: RJCC 191600Z 17003KT 9999 FEW020 11/11 Q1010 RMK 1CU020 A2984
Conditions at: RJCC (CHITOSE (JASDF/C, JP) observed 1600 UTC 19 September 2020
Temperature: 11.0°C (52°F)
Dewpoint: 11.0°C (52°F) [RH = 100%]
Pressure (altimeter): 29.82 inches Hg (1010.0 mb)
Winds: from the S (170 degrees) at 3 MPH (3 knots; 1.5 m/s)
Visibility: 6 or more miles (10+ km)
Ceiling: at least 12,000 feet AGL
Clouds: few clouds at 2000 feet AGL
Weather: no significant weather observed at this time

METAR text: RJCC 191530Z VRB01KT 9999 FEW020 13/12 Q1010 RMK 1CU020 A2984
Conditions at: RJCC (CHITOSE (JASDF/C, JP) observed 1530 UTC 19 September 2020
Temperature: 13.0°C (55°F)
Dewpoint: 12.0°C (54°F) [RH = 94%]
Pressure (altimeter): 29.82 inches Hg (1010.0 mb)
Winds: variable direction winds at 1 MPH (1 knots; 0.5 m/s)
Visibility: 6 or more miles (10+ km)
Ceiling: at least 12,000 feet AGL
Clouds: few clouds at 2000 feet AGL
Weather: no significant weather observed at this time

METAR text: RJCC 191500Z VRB01KT 9999 FEW020 13/13 Q1010 RMK 1CU020 A2983
Conditions at: RJCC (CHITOSE (JASDF/C, JP) observed 1500 UTC 19 September 2020
Temperature: 13.0°C (55°F)
Dewpoint: 13.0°C (55°F) [RH = 100%]
Pressure (altimeter): 29.82 inches Hg (1010.0 mb)
Winds: variable direction winds at 1 MPH (1 knots; 0.5 m/s)
Visibility: 6 or more miles (10+ km)
Ceiling: at least 12,000 feet AGL
Clouds: few clouds at 2000 feet AGL
Weather: no significant weather observed at this time

METAR text: RJCC 191430Z VRB02KT 9999 FEW020 13/12 Q1010 RMK 1CU020 A2983
Conditions at: RJCC (CHITOSE (JASDF/C, JP) observed 1430 UTC 19 September 2020
Temperature: 13.0°C (55°F)
Dewpoint: 12.0°C (54°F) [RH = 94%]
Pressure (altimeter): 29.82 inches Hg (1010.0 mb)
Winds: variable direction winds at 2 MPH (2 knots; 1.0 m/s)
Visibility: 6 or more miles (10+ km)
Ceiling: at least 12,000 feet AGL
Clouds: few clouds at 2000 feet AGL
Weather: no significant weather observed at this time

METAR text: RJCC 191400Z 13004KT 9999 FEW020 13/12 Q1010 RMK 1CU020 A2984
Conditions at: RJCC (CHITOSE (JASDF/C, JP) observed 1400 UTC 19 September 2020
Temperature: 13.0°C (55°F)
Dewpoint: 12.0°C (54°F) [RH = 94%]
Pressure (altimeter): 29.82 inches Hg (1010.0 mb)
Winds: from the SE (130 degrees) at 5 MPH (4 knots; 2.1 m/s)
Visibility: 6 or more miles (10+ km)
Ceiling: at least 12,000 feet AGL
Clouds: few clouds at 2000 feet AGL
Weather: no significant weather observed at this time

METAR text: RJCC 191330Z 17003KT 9999 FEW020 13/13 Q1010 RMK 1CU020 A2984
Conditions at: RJCC (CHITOSE (JASDF/C, JP) observed 1330 UTC 19 September 2020
Temperature: 13.0°C (55°F)
Dewpoint: 13.0°C (55°F) [RH = 100%]
Pressure (altimeter): 29.82 inches Hg (1010.0 mb)
Winds: from the S (170 degrees) at 3 MPH (3 knots; 1.5 m/s)
Visibility: 6 or more miles (10+ km)
Ceiling: at least 12,000 feet AGL
Clouds: few clouds at 2000 feet AGL
Weather: no significant weather observed at this time

METAR text: RJCC 191300Z 14003KT 9999 FEW020 13/13 Q1010 RMK 1CU020 A2984
Conditions at: RJCC (CHITOSE (JASDF/C, JP) observed 1300 UTC 19 September 2020
Temperature: 13.0°C (55°F)
Dewpoint: 13.0°C (55°F) [RH = 100%]
Pressure (altimeter): 29.82 inches Hg (1010.0 mb)
Winds: from the SE (140 degrees) at 3 MPH (3 knots; 1.5 m/s)
Visibility: 6 or more miles (10+ km)
Ceiling: at least 12,000 feet AGL
Clouds: few clouds at 2000 feet AGL
Weather: no significant weather observed at this time

METAR text: RJCC 191230Z 14004KT 9999 FEW020 14/13 Q1010 RMK 1CU020 A2983
Conditions at: RJCC (CHITOSE (JASDF/C, JP) observed 1230 UTC 19 September 2020
Temperature: 14.0°C (57°F)
Dewpoint: 13.0°C (55°F) [RH = 94%]
Pressure (altimeter): 29.82 inches Hg (1010.0 mb)
Winds: from the SE (140 degrees) at 5 MPH (4 knots; 2.1 m/s)
Visibility: 6 or more miles (10+ km)
Ceiling: at least 12,000 feet AGL
Clouds: few clouds at 2000 feet AGL
Weather: no significant weather observed at this time

METAR text: RJCC 191200Z 14003KT 9999 FEW020 15/14 Q1010 RMK 1CU020 A2983
Conditions at: RJCC (CHITOSE (JASDF/C, JP) observed 1200 UTC 19 September 2020
Temperature: 15.0°C (59°F)
Dewpoint: 14.0°C (57°F) [RH = 94%]
Pressure (altimeter): 29.82 inches Hg (1010.0 mb)
Winds: from the SE (140 degrees) at 3 MPH (3 knots; 1.5 m/s)
Visibility: 6 or more miles (10+ km)
Ceiling: at least 12,000 feet AGL
Clouds: few clouds at 2000 feet AGL
Weather: no significant weather observed at this time

METAR text: RJCC 191130Z 12003KT 090V170 9999 FEW020 14/14 Q1010 RMK 1CU020 A2983
Conditions at: RJCC (CHITOSE (JASDF/C, JP) observed 1130 UTC 19 September 2020
Temperature: 14.0°C (57°F)
Dewpoint: 14.0°C (57°F) [RH = 100%]
Pressure (altimeter): 29.82 inches Hg (1010.0 mb)
Winds: from the ESE (120 degrees) at 3 MPH (3 knots; 1.5 m/s)
Visibility: 6 or more miles (10+ km)
Ceiling: at least 12,000 feet AGL
Clouds: few clouds at 2000 feet AGL
Weather: no significant weather observed at this time

METAR text: RJCC 191100Z 15003KT 120V190 9999 FEW020 15/14 Q1010 RMK 1CU020 A2983
Conditions at: RJCC (CHITOSE (JASDF/C, JP) observed 1100 UTC 19 September 2020
Temperature: 15.0°C (59°F)
Dewpoint: 14.0°C (57°F) [RH = 94%]
Pressure (altimeter): 29.82 inches Hg (1010.0 mb)
Winds: from the SSE (150 degrees) at 3 MPH (3 knots; 1.5 m/s)
Visibility: 6 or more miles (10+ km)
Ceiling: at least 12,000 feet AGL
Clouds: few clouds at 2000 feet AGL
Weather: no significant weather observed at this time

METAR text: RJCC 191030Z 18003KT 120V230 9999 FEW020 16/15 Q1010 RMK 1CU020 A2982
Conditions at: RJCC (CHITOSE (JASDF/C, JP) observed 1030 UTC 19 September 2020
Temperature: 16.0°C (61°F)
Dewpoint: 15.0°C (59°F) [RH = 94%]
Pressure (altimeter): 29.82 inches Hg (1010.0 mb)
Winds: from the S (180 degrees) at 3 MPH (3 knots; 1.5 m/s)
Visibility: 6 or more miles (10+ km)
Ceiling: at least 12,000 feet AGL
Clouds: few clouds at 2000 feet AGL
Weather: no significant weather observed at this time

METAR text: RJCC 191000Z VRB02KT 9999 FEW020 15/15 Q1009 RMK 1CU020 A2982
Conditions at: RJCC (CHITOSE (JASDF/C, JP) observed 1000 UTC 19 September 2020
Temperature: 15.0°C (59°F)
Dewpoint: 15.0°C (59°F) [RH = 100%]
Pressure (altimeter): 29.79 inches Hg (1009.0 mb)
Winds: variable direction winds at 2 MPH (2 knots; 1.0 m/s)
Visibility: 6 or more miles (10+ km)
Ceiling: at least 12,000 feet AGL
Clouds: few clouds at 2000 feet AGL
Weather: no significant weather observed at this time

METAR text: RJCC 190930Z 35003KT 9999 FEW020 16/15 Q1009 RMK 1CU020 A2981
Conditions at: RJCC (CHITOSE (JASDF/C, JP) observed 0930 UTC 19 September 2020
Temperature: 16.0°C (61°F)
Dewpoint: 15.0°C (59°F) [RH = 94%]
Pressure (altimeter): 29.79 inches Hg (1009.0 mb)
Winds: from the N (350 degrees) at 3 MPH (3 knots; 1.5 m/s)
Visibility: 6 or more miles (10+ km)
Ceiling: at least 12,000 feet AGL
Clouds: few clouds at 2000 feet AGL
Weather: no significant weather observed at this time

METAR text: RJCC 190900Z 36005KT 330V030 9999 FEW020 17/15 Q1009 RMK 1CU020 A2980
Conditions at: RJCC (CHITOSE (JASDF/C, JP) observed 0900 UTC 19 September 2020
Temperature: 17.0°C (63°F)
Dewpoint: 15.0°C (59°F) [RH = 88%]
Pressure (altimeter): 29.79 inches Hg (1009.0 mb)
Winds: from the N (360 degrees) at 6 MPH (5 knots; 2.6 m/s)
Visibility: 6 or more miles (10+ km)
Ceiling: at least 12,000 feet AGL
Clouds: few clouds at 2000 feet AGL
Weather: no significant weather observed at this time

METAR text: RJCC 190830Z VRB03KT 9999 FEW020 SCT080 19/15 Q1009 RMK 1CU020 4AC080 A2979
Conditions at: RJCC (CHITOSE (JASDF/C, JP) observed 0830 UTC 19 September 2020
Temperature: 19.0°C (66°F)
Dewpoint: 15.0°C (59°F) [RH = 78%]
Pressure (altimeter): 29.79 inches Hg (1009.0 mb)
Winds: variable direction winds at 3 MPH (3 knots; 1.5 m/s)
Visibility: 6 or more miles (10+ km)
Ceiling: at least 12,000 feet AGL
Clouds: few clouds at 2000 feet AGL
scattered clouds at 8000 feet AGL
Weather: no significant weather observed at this time

METAR text: RJCC 190800Z 24008KT 9999 -SHRA FEW020 BKN040 20/15 Q1008 RMK 1CU020 6CU040 A2979
Conditions at: RJCC (CHITOSE (JASDF/C, JP) observed 0800 UTC 19 September 2020
Temperature: 20.0°C (68°F)
Dewpoint: 15.0°C (59°F) [RH = 73%]
Pressure (altimeter): 29.76 inches Hg (1008.0 mb)
Winds: from the WSW (240 degrees) at 9 MPH (8 knots; 4.1 m/s)
Visibility: 6 or more miles (10+ km)
Ceiling: 4000 feet AGL
Clouds: few clouds at 2000 feet AGL
broken clouds at 4000 feet AGL
Weather: -SHRA  (light rain showers)

METAR text: RJCC 190730Z 21007KT 9999 FEW030 BKN050 21/14 Q1008 RMK 1CU030 5CU050 A2978
Conditions at: RJCC (CHITOSE (JASDF/C, JP) observed 0730 UTC 19 September 2020
Temperature: 21.0°C (70°F)
Dewpoint: 14.0°C (57°F) [RH = 64%]
Pressure (altimeter): 29.76 inches Hg (1008.0 mb)
Winds: from the SSW (210 degrees) at 8 MPH (7 knots; 3.6 m/s)
Visibility: 6 or more miles (10+ km)
Ceiling: 5000 feet AGL
Clouds: few clouds at 3000 feet AGL
broken clouds at 5000 feet AGL
Weather: no significant weather observed at this time

METAR text: RJCC 190700Z 23009KT 9999 FEW030 SCT050 23/13 Q1007 RMK 1CU030 4CU050 A2976
Conditions at: RJCC (CHITOSE (JASDF/C, JP) observed 0700 UTC 19 September 2020
Temperature: 23.0°C (73°F)
Dewpoint: 13.0°C (55°F) [RH = 53%]
Pressure (altimeter): 29.73 inches Hg (1007.0 mb)
Winds: from the SW (230 degrees) at 10 MPH (9 knots; 4.6 m/s)
Visibility: 6 or more miles (10+ km)
Ceiling: at least 12,000 feet AGL
Clouds: few clouds at 3000 feet AGL
scattered clouds at 5000 feet AGL
Weather: no significant weather observed at this time

METAR text: RJCC 190630Z 25012KT 9999 FEW030 SCT060 23/12 Q1007 RMK 1CU030 4CU060 A2976
Conditions at: RJCC (CHITOSE (JASDF/C, JP) observed 0630 UTC 19 September 2020
Temperature: 23.0°C (73°F)
Dewpoint: 12.0°C (54°F) [RH = 50%]
Pressure (altimeter): 29.73 inches Hg (1007.0 mb)
Winds: from the WSW (250 degrees) at 14 MPH (12 knots; 6.2 m/s)
Visibility: 6 or more miles (10+ km)
Ceiling: at least 12,000 feet AGL
Clouds: few clouds at 3000 feet AGL
scattered clouds at 6000 feet AGL
Weather: no significant weather observed at this time

METAR text: RJCC 190600Z 27009KT 9999 FEW030 SCT050 BKN060 24/14 Q1007 RMK 1CU030 3CU050 5CU060 A2975
Conditions at: RJCC (CHITOSE (JASDF/C, JP) observed 0600 UTC 19 September 2020
Temperature: 24.0°C (75°F)
Dewpoint: 14.0°C (57°F) [RH = 54%]
Pressure (altimeter): 29.73 inches Hg (1007.0 mb)
Winds: from the W (270 degrees) at 10 MPH (9 knots; 4.6 m/s)
Visibility: 6 or more miles (10+ km)
Ceiling: 6000 feet AGL
Clouds: few clouds at 3000 feet AGL
scattered clouds at 5000 feet AGL
broken clouds at 6000 feet AGL
Weather: no significant weather observed at this time

METAR text: RJCC 190530Z 24010KT 180V270 9999 FEW030 SCT050 BKN070 24/13 Q1007 RMK 1CU030 3CU050 5AC070 A2975
Conditions at: RJCC (CHITOSE (JASDF/C, JP) observed 0530 UTC 19 September 2020
Temperature: 24.0°C (75°F)
Dewpoint: 13.0°C (55°F) [RH = 50%]
Pressure (altimeter): 29.73 inches Hg (1007.0 mb)
Winds: from the WSW (240 degrees) at 12 MPH (10 knots; 5.1 m/s)
Visibility: 6 or more miles (10+ km)
Ceiling: 7000 feet AGL
Clouds: few clouds at 3000 feet AGL
scattered clouds at 5000 feet AGL
broken clouds at 7000 feet AGL
Weather: no significant weather observed at this time

METAR text: RJCC 190500Z 26012KT 210V280 9999 FEW030 SCT080 24/12 Q1007 RMK 1CU030 3AC080 A2974
Conditions at: RJCC (CHITOSE (JASDF/C, JP) observed 0500 UTC 19 September 2020
Temperature: 24.0°C (75°F)
Dewpoint: 12.0°C (54°F) [RH = 47%]
Pressure (altimeter): 29.73 inches Hg (1007.0 mb)
Winds: from the W (260 degrees) at 14 MPH (12 knots; 6.2 m/s)
Visibility: 6 or more miles (10+ km)
Ceiling: at least 12,000 feet AGL
Clouds: few clouds at 3000 feet AGL
scattered clouds at 8000 feet AGL
Weather: no significant weather observed at this time

METAR text: RJCC 190430Z 25010KT 200V270 9999 FEW030 SCT060 BKN070 23/12 Q1007 RMK 1CU030 3CU060 5AC070 A2974
Conditions at: RJCC (CHITOSE (JASDF/C, JP) observed 0430 UTC 19 September 2020
Temperature: 23.0°C (73°F)
Dewpoint: 12.0°C (54°F) [RH = 50%]
Pressure (altimeter): 29.73 inches Hg (1007.0 mb)
Winds: from the WSW (250 degrees) at 12 MPH (10 knots; 5.1 m/s)
Visibility: 6 or more miles (10+ km)
Ceiling: 7000 feet AGL
Clouds: few clouds at 3000 feet AGL
scattered clouds at 6000 feet AGL
broken clouds at 7000 feet AGL
Weather: no significant weather observed at this time

METAR text: RJCC 190400Z 25012KT 9999 FEW030 SCT050 BKN060 24/12 Q1007 RMK 1CU030 3CU050 5CU060 A2974
Conditions at: RJCC (CHITOSE (JASDF/C, JP) observed 0400 UTC 19 September 2020
Temperature: 24.0°C (75°F)
Dewpoint: 12.0°C (54°F) [RH = 47%]
Pressure (altimeter): 29.73 inches Hg (1007.0 mb)
Winds: from the WSW (250 degrees) at 14 MPH (12 knots; 6.2 m/s)
Visibility: 6 or more miles (10+ km)
Ceiling: 6000 feet AGL
Clouds: few clouds at 3000 feet AGL
scattered clouds at 5000 feet AGL
broken clouds at 6000 feet AGL
Weather: no significant weather observed at this time

METAR text: RJCC 190330Z 25011KT 9999 FEW030 SCT060 BKN070 24/14 Q1007 RMK 1CU030 4CU060 5AC070 A2975
Conditions at: RJCC (CHITOSE (JASDF/C, JP) observed 0330 UTC 19 September 2020
Temperature: 24.0°C (75°F)
Dewpoint: 14.0°C (57°F) [RH = 54%]
Pressure (altimeter): 29.73 inches Hg (1007.0 mb)
Winds: from the WSW (250 degrees) at 13 MPH (11 knots; 5.7 m/s)
Visibility: 6 or more miles (10+ km)
Ceiling: 7000 feet AGL
Clouds: few clouds at 3000 feet AGL
scattered clouds at 6000 feet AGL
broken clouds at 7000 feet AGL
Weather: no significant weather observed at this time

METAR text: RJCC 190300Z 26008KT 220V300 9999 FEW030 SCT050 BKN060 23/13 Q1007 RMK 1CU030 3CU050 5CU060 A2975
Conditions at: RJCC (CHITOSE (JASDF/C, JP) observed 0300 UTC 19 September 2020
Temperature: 23.0°C (73°F)
Dewpoint: 13.0°C (55°F) [RH = 53%]
Pressure (altimeter): 29.73 inches Hg (1007.0 mb)
Winds: from the W (260 degrees) at 9 MPH (8 knots; 4.1 m/s)
Visibility: 6 or more miles (10+ km)
Ceiling: 6000 feet AGL
Clouds: few clouds at 3000 feet AGL
scattered clouds at 5000 feet AGL
broken clouds at 6000 feet AGL
Weather: no significant weather observed at this time

METAR text: RJCC 190230Z 25009KT 210V270 9999 FEW030 SCT050 BKN060 23/13 Q1007 RMK 1CU030 4CU050 5CU060 A2975
Conditions at: RJCC (CHITOSE (JASDF/C, JP) observed 0230 UTC 19 September 2020
Temperature: 23.0°C (73°F)
Dewpoint: 13.0°C (55°F) [RH = 53%]
Pressure (altimeter): 29.73 inches Hg (1007.0 mb)
Winds: from the WSW (250 degrees) at 10 MPH (9 knots; 4.6 m/s)
Visibility: 6 or more miles (10+ km)
Ceiling: 6000 feet AGL
Clouds: few clouds at 3000 feet AGL
scattered clouds at 5000 feet AGL
broken clouds at 6000 feet AGL
Weather: no significant weather observed at this time

METAR text: RJCC 190200Z 23006KT 200V260 9999 FEW030 SCT050 BKN060 22/14 Q1007 RMK 1CU030 3CU050 5CU060 A2975
Conditions at: RJCC (CHITOSE (JASDF/C, JP) observed 0200 UTC 19 September 2020
Temperature: 22.0°C (72°F)
Dewpoint: 14.0°C (57°F) [RH = 60%]
Pressure (altimeter): 29.73 inches Hg (1007.0 mb)
Winds: from the SW (230 degrees) at 7 MPH (6 knots; 3.1 m/s)
Visibility: 6 or more miles (10+ km)
Ceiling: 6000 feet AGL
Clouds: few clouds at 3000 feet AGL
scattered clouds at 5000 feet AGL
broken clouds at 6000 feet AGL
Weather: no significant weather observed at this time

METAR text: RJCC 190130Z 20007KT 9999 FEW030 SCT050 23/16 Q1007 RMK 1CU030 3CU050 A2975
Conditions at: RJCC (CHITOSE (JASDF/C, JP) observed 0130 UTC 19 September 2020
Temperature: 23.0°C (73°F)
Dewpoint: 16.0°C (61°F) [RH = 65%]
Pressure (altimeter): 29.73 inches Hg (1007.0 mb)
Winds: from the SSW (200 degrees) at 8 MPH (7 knots; 3.6 m/s)
Visibility: 6 or more miles (10+ km)
Ceiling: at least 12,000 feet AGL
Clouds: few clouds at 3000 feet AGL
scattered clouds at 5000 feet AGL
Weather: no significant weather observed at this time

METAR text: RJCC 190100Z 21007KT 170V240 9999 FEW030 SCT050 23/15 Q1007 RMK 1CU030 4CU050 A2976
Conditions at: RJCC (CHITOSE (JASDF/C, JP) observed 0100 UTC 19 September 2020
Temperature: 23.0°C (73°F)
Dewpoint: 15.0°C (59°F) [RH = 61%]
Pressure (altimeter): 29.73 inches Hg (1007.0 mb)
Winds: from the SSW (210 degrees) at 8 MPH (7 knots; 3.6 m/s)
Visibility: 6 or more miles (10+ km)
Ceiling: at least 12,000 feet AGL
Clouds: few clouds at 3000 feet AGL
scattered clouds at 5000 feet AGL
Weather: no significant weather observed at this time

METAR text: RJCC 190030Z 18006KT 090V220 9999 FEW030 SCT060 23/16 Q1008 RMK 1CU030 3CU060 A2977
Conditions at: RJCC (CHITOSE (JASDF/C, JP) observed 0030 UTC 19 September 2020
Temperature: 23.0°C (73°F)
Dewpoint: 16.0°C (61°F) [RH = 65%]
Pressure (altimeter): 29.76 inches Hg (1008.0 mb)
Winds: from the S (180 degrees) at 7 MPH (6 knots; 3.1 m/s)
Visibility: 6 or more miles (10+ km)
Ceiling: at least 12,000 feet AGL
Clouds: few clouds at 3000 feet AGL
scattered clouds at 6000 feet AGL
Weather: no significant weather observed at this time

METAR text: RJCC 190000Z 16007KT 9999 FEW030 22/16 Q1008 RMK 1CU030 A2977
Conditions at: RJCC (CHITOSE (JASDF/C, JP) observed 0000 UTC 19 September 2020
Temperature: 22.0°C (72°F)
Dewpoint: 16.0°C (61°F) [RH = 69%]
Pressure (altimeter): 29.76 inches Hg (1008.0 mb)
Winds: from the SSE (160 degrees) at 8 MPH (7 knots; 3.6 m/s)
Visibility: 6 or more miles (10+ km)
Ceiling: at least 12,000 feet AGL
Clouds: few clouds at 3000 feet AGL
Weather: no significant weather observed at this time

METAR text: RJCC 182330Z 22005KT 9999 FEW030 22/16 Q1007 RMK 1CU030 A2975
Conditions at: RJCC (CHITOSE (JASDF/C, JP) observed 2330 UTC 18 September 2020
Temperature: 22.0°C (72°F)
Dewpoint: 16.0°C (61°F) [RH = 69%]
Pressure (altimeter): 29.73 inches Hg (1007.0 mb)
Winds: from the SW (220 degrees) at 6 MPH (5 knots; 2.6 m/s)
Visibility: 6 or more miles (10+ km)
Ceiling: at least 12,000 feet AGL
Clouds: few clouds at 3000 feet AGL
Weather: no significant weather observed at this time

METAR text: RJCC 182300Z 22006KT 190V250 9999 FEW030 21/15 Q1007 RMK 1CU030 A2975
Conditions at: RJCC (CHITOSE (JASDF/C, JP) observed 2300 UTC 18 September 2020
Temperature: 21.0°C (70°F)
Dewpoint: 15.0°C (59°F) [RH = 69%]
Pressure (altimeter): 29.73 inches Hg (1007.0 mb)
Winds: from the SW (220 degrees) at 7 MPH (6 knots; 3.1 m/s)
Visibility: 6 or more miles (10+ km)
Ceiling: at least 12,000 feet AGL
Clouds: few clouds at 3000 feet AGL
Weather: no significant weather observed at this time

METAR text: RJCC 182230Z 22007KT 9999 FEW030 20/17 Q1007 RMK 1CU030 A2975
Conditions at: RJCC (CHITOSE (JASDF/C, JP) observed 2230 UTC 18 September 2020
Temperature: 20.0°C (68°F)
Dewpoint: 17.0°C (63°F) [RH = 83%]
Pressure (altimeter): 29.73 inches Hg (1007.0 mb)
Winds: from the SW (220 degrees) at 8 MPH (7 knots; 3.6 m/s)
Visibility: 6 or more miles (10+ km)
Ceiling: at least 12,000 feet AGL
Clouds: few clouds at 3000 feet AGL
Weather: no significant weather observed at this time

METAR text: RJCC 182200Z 14005KT 9999 FEW030 18/17 Q1007 RMK 1CU030 A2974
Conditions at: RJCC (CHITOSE (JASDF/C, JP) observed 2200 UTC 18 September 2020
Temperature: 18.0°C (64°F)
Dewpoint: 17.0°C (63°F) [RH = 94%]
Pressure (altimeter): 29.73 inches Hg (1007.0 mb)
Winds: from the SE (140 degrees) at 6 MPH (5 knots; 2.6 m/s)
Visibility: 6 or more miles (10+ km)
Ceiling: at least 12,000 feet AGL
Clouds: few clouds at 3000 feet AGL
Weather: no significant weather observed at this time

METAR text: RJCC 182130Z 04007KT 010V080 9999 FEW025 16/16 Q1007 RMK 1CU025 A2974
Conditions at: RJCC (CHITOSE (JASDF/C, JP) observed 2130 UTC 18 September 2020
Temperature: 16.0°C (61°F)
Dewpoint: 16.0°C (61°F) [RH = 100%]
Pressure (altimeter): 29.73 inches Hg (1007.0 mb)
Winds: from the NE (40 degrees) at 8 MPH (7 knots; 3.6 m/s)
Visibility: 6 or more miles (10+ km)
Ceiling: at least 12,000 feet AGL
Clouds: few clouds at 2500 feet AGL
Weather: no significant weather observed at this time

METAR text: RJCC 182100Z 18006KT 9999 FEW020 15/14 Q1006 RMK 1CU020 A2973
Conditions at: RJCC (CHITOSE (JASDF/C, JP) observed 2100 UTC 18 September 2020
Temperature: 15.0°C (59°F)
Dewpoint: 14.0°C (57°F) [RH = 94%]
Pressure (altimeter): 29.70 inches Hg (1006.0 mb)
Winds: from the S (180 degrees) at 7 MPH (6 knots; 3.1 m/s)
Visibility: 6 or more miles (10+ km)
Ceiling: at least 12,000 feet AGL
Clouds: few clouds at 2000 feet AGL
Weather: no significant weather observed at this time

METAR text: RJCC 182030Z 20006KT 9999 FEW020 15/15 Q1006 RMK 1CU020 A2972
Conditions at: RJCC (CHITOSE (JASDF/C, JP) observed 2030 UTC 18 September 2020
Temperature: 15.0°C (59°F)
Dewpoint: 15.0°C (59°F) [RH = 100%]
Pressure (altimeter): 29.70 inches Hg (1006.0 mb)
Winds: from the SSW (200 degrees) at 7 MPH (6 knots; 3.1 m/s)
Visibility: 6 or more miles (10+ km)
Ceiling: at least 12,000 feet AGL
Clouds: few clouds at 2000 feet AGL
Weather: no significant weather observed at this time

METAR text: RJCC 182000Z 12005KT 090V200 9999 BCFG FEW010 15/15 Q1006 RMK 1ST010 A2971
Conditions at: RJCC (CHITOSE (JASDF/C, JP) observed 2000 UTC 18 September 2020
Temperature: 15.0°C (59°F)
Dewpoint: 15.0°C (59°F) [RH = 100%]
Pressure (altimeter): 29.70 inches Hg (1006.0 mb)
Winds: from the ESE (120 degrees) at 6 MPH (5 knots; 2.6 m/s)
Visibility: 6 or more miles (10+ km)
Ceiling: at least 12,000 feet AGL
Clouds: few clouds at 1000 feet AGL
Weather: BCFG  (patches of fog)

METAR text: RJCC 181930Z 15005KT 9999 FEW010 14/14 Q1006 RMK 1ST010 A2971
Conditions at: RJCC (CHITOSE (JASDF/C, JP) observed 1930 UTC 18 September 2020
Temperature: 14.0°C (57°F)
Dewpoint: 14.0°C (57°F) [RH = 100%]
Pressure (altimeter): 29.70 inches Hg (1006.0 mb)
Winds: from the SSE (150 degrees) at 6 MPH (5 knots; 2.6 m/s)
Visibility: 6 or more miles (10+ km)
Ceiling: at least 12,000 feet AGL
Clouds: few clouds at 1000 feet AGL
Weather: no significant weather observed at this time

METAR text: RJCC 181900Z 13005KT 9999 FEW010 15/15 Q1006 RMK 1ST010 A2972
Conditions at: RJCC (CHITOSE (JASDF/C, JP) observed 1900 UTC 18 September 2020
Temperature: 15.0°C (59°F)
Dewpoint: 15.0°C (59°F) [RH = 100%]
Pressure (altimeter): 29.70 inches Hg (1006.0 mb)
Winds: from the SE (130 degrees) at 6 MPH (5 knots; 2.6 m/s)
Visibility: 6 or more miles (10+ km)
Ceiling: at least 12,000 feet AGL
Clouds: few clouds at 1000 feet AGL
Weather: no significant weather observed at this time

METAR text: RJCC 181830Z 09005KT 9999 FEW010 15/15 Q1006 RMK 1ST010 A2971
Conditions at: RJCC (CHITOSE (JASDF/C, JP) observed 1830 UTC 18 September 2020
Temperature: 15.0°C (59°F)
Dewpoint: 15.0°C (59°F) [RH = 100%]
Pressure (altimeter): 29.70 inches Hg (1006.0 mb)
Winds: from the E (90 degrees) at 6 MPH (5 knots; 2.6 m/s)
Visibility: 6 or more miles (10+ km)
Ceiling: at least 12,000 feet AGL
Clouds: few clouds at 1000 feet AGL
Weather: no significant weather observed at this time

METAR text: RJCC 181800Z 16006KT 9999 FEW010 15/15 Q1006 RMK 1ST010 A2971
Conditions at: RJCC (CHITOSE (JASDF/C, JP) observed 1800 UTC 18 September 2020
Temperature: 15.0°C (59°F)
Dewpoint: 15.0°C (59°F) [RH = 100%]
Pressure (altimeter): 29.70 inches Hg (1006.0 mb)
Winds: from the SSE (160 degrees) at 7 MPH (6 knots; 3.1 m/s)
Visibility: 6 or more miles (10+ km)
Ceiling: at least 12,000 feet AGL
Clouds: few clouds at 1000 feet AGL
Weather: no significant weather observed at this time

METAR text: RJCC 181730Z 16005KT 9999 FEW010 14/14 Q1006 RMK 1ST010 A2971
Conditions at: RJCC (CHITOSE (JASDF/C, JP) observed 1730 UTC 18 September 2020
Temperature: 14.0°C (57°F)
Dewpoint: 14.0°C (57°F) [RH = 100%]
Pressure (altimeter): 29.70 inches Hg (1006.0 mb)
Winds: from the SSE (160 degrees) at 6 MPH (5 knots; 2.6 m/s)
Visibility: 6 or more miles (10+ km)
Ceiling: at least 12,000 feet AGL
Clouds: few clouds at 1000 feet AGL
Weather: no significant weather observed at this time

METAR text: RJCC 181700Z VRB02KT 9999 FEW010 15/15 Q1006 RMK 1ST010 A2971
Conditions at: RJCC (CHITOSE (JASDF/C, JP) observed 1700 UTC 18 September 2020
Temperature: 15.0°C (59°F)
Dewpoint: 15.0°C (59°F) [RH = 100%]
Pressure (altimeter): 29.70 inches Hg (1006.0 mb)
Winds: variable direction winds at 2 MPH (2 knots; 1.0 m/s)
Visibility: 6 or more miles (10+ km)
Ceiling: at least 12,000 feet AGL
Clouds: few clouds at 1000 feet AGL
Weather: no significant weather observed at this time

METAR text: RJCC 181630Z 11003KT 9999 FEW010 15/15 Q1006 RMK 1ST010 A2971
Conditions at: RJCC (CHITOSE (JASDF/C, JP) observed 1630 UTC 18 September 2020
Temperature: 15.0°C (59°F)
Dewpoint: 15.0°C (59°F) [RH = 100%]
Pressure (altimeter): 29.70 inches Hg (1006.0 mb)
Winds: from the ESE (110 degrees) at 3 MPH (3 knots; 1.5 m/s)
Visibility: 6 or more miles (10+ km)
Ceiling: at least 12,000 feet AGL
Clouds: few clouds at 1000 feet AGL
Weather: no significant weather observed at this time

METAR text: RJCC 181600Z 11002KT 9999 FEW010 14/14 Q1006 RMK 1ST010 A2971
Conditions at: RJCC (CHITOSE (JASDF/C, JP) observed 1600 UTC 18 September 2020
Temperature: 14.0°C (57°F)
Dewpoint: 14.0°C (57°F) [RH = 100%]
Pressure (altimeter): 29.70 inches Hg (1006.0 mb)
Winds: from the ESE (110 degrees) at 2 MPH (2 knots; 1.0 m/s)
Visibility: 6 or more miles (10+ km)
Ceiling: at least 12,000 feet AGL
Clouds: few clouds at 1000 feet AGL
Weather: no significant weather observed at this time

METAR text: RJCC 181530Z 11004KT 9999 FEW010 15/15 Q1006 RMK 1ST010 A2971
Conditions at: RJCC (CHITOSE (JASDF/C, JP) observed 1530 UTC 18 September 2020
Temperature: 15.0°C (59°F)
Dewpoint: 15.0°C (59°F) [RH = 100%]
Pressure (altimeter): 29.70 inches Hg (1006.0 mb)
Winds: from the ESE (110 degrees) at 5 MPH (4 knots; 2.1 m/s)
Visibility: 6 or more miles (10+ km)
Ceiling: at least 12,000 feet AGL
Clouds: few clouds at 1000 feet AGL
Weather: no significant weather observed at this time

METAR text: RJCC 181500Z 10003KT 070V210 9999 FEW010 15/14 Q1006 RMK 1ST010 A2971
Conditions at: RJCC (CHITOSE (JASDF/C, JP) observed 1500 UTC 18 September 2020
Temperature: 15.0°C (59°F)
Dewpoint: 14.0°C (57°F) [RH = 94%]
Pressure (altimeter): 29.70 inches Hg (1006.0 mb)
Winds: from the E (100 degrees) at 3 MPH (3 knots; 1.5 m/s)
Visibility: 6 or more miles (10+ km)
Ceiling: at least 12,000 feet AGL
Clouds: few clouds at 1000 feet AGL
Weather: no significant weather observed at this time

METAR text: RJCC 181430Z 23005KT 9999 FEW010 18/15 Q1005 RMK 1ST010 A2970
Conditions at: RJCC (CHITOSE (JASDF/C, JP) observed 1430 UTC 18 September 2020
Temperature: 18.0°C (64°F)
Dewpoint: 15.0°C (59°F) [RH = 83%]
Pressure (altimeter): 29.68 inches Hg (1005.0 mb)
Winds: from the SW (230 degrees) at 6 MPH (5 knots; 2.6 m/s)
Visibility: 6 or more miles (10+ km)
Ceiling: at least 12,000 feet AGL
Clouds: few clouds at 1000 feet AGL
Weather: no significant weather observed at this time

Forecast for: RJCC (CHITOSE (JASDF/C, JP)
Text: TAF RJCC 192305Z 2000/2106 17010KT 9999 FEW020 SCT040
Forecast period: 0000 to 1500 UTC 20 September 2020
Forecast type: FROM: standard forecast or significant change
Winds: from the S (170 degrees) at 12 MPH (10 knots; 5.1 m/s)
Visibility: 6 or more miles (10+ km)
Ceiling: at least 12,000 feet AGL
Clouds: few clouds at 2000 feet AGL
scattered clouds at 4000 feet AGL
Weather: no significant weather forecast for this period
Text: BECMG 2015/2018 34006KT
Forecast period: 1500 UTC 20 September 2020 to 0600 UTC 21 September 2020
Forecast type: BECOMING: Conditions expected to become as follows by 1800 UTC 20 September 2020
Winds: from the NNW (340 degrees) at 7 MPH (6 knots; 3.1 m/s)
Visibility: 6 or more miles (10+ km)
Ceiling: at least 12,000 feet AGL
Clouds: few clouds at 2000 feet AGL
scattered clouds at 4000 feet AGL
Weather: no significant weather forecast for this period
Text: TEMPO 2018/2100 4000 SHRA BR FEW005 BKN008
Forecast period: 1800 UTC 20 September 2020 to 0000 UTC 21 September 2020
Forecast type: TEMPORARY: The following changes expected for less than half the time period
Visibility: 2.49 miles (4.01 km)
Ceiling: 800 feet AGL
Clouds: few clouds at 500 feet AGL
broken clouds at 800 feet AGL
Weather: SHRA BR  (rain showers, mist)